sensor_id;sensor_type;location;lat;lon;timestamp;P1;durP1;ratioP1;P2;durP2;ratioP2
22606;SDS011;11470;20.968;105.834;2023-04-24T00:05:16;56.72;;;37.03;;
22606;SDS011;11470;20.968;105.834;2023-04-24T00:10:22;55.30;;;35.60;;
22606;SDS011;11470;20.968;105.834;2023-04-24T00:15:27;57.17;;;37.17;;
22606;SDS011;11470;20.968;105.834;2023-04-24T00:20:33;69.40;;;39.13;;
22606;SDS011;11470;20.968;105.834;2023-04-24T00:25:43;58.40;;;37.13;;
22606;SDS011;11470;20.968;105.834;2023-04-24T00:35:55;69.13;;;41.30;;
22606;SDS011;11470;20.968;105.834;2023-04-24T00:41:00;60.00;;;37.70;;
22606;SDS011;11470;20.968;105.834;2023-04-24T00:51:13;56.60;;;35.53;;
22606;SDS011;11470;20.968;105.834;2023-04-24T00:56:19;53.38;;;36.40;;
22606;SDS011;11470;20.968;105.834;2023-04-24T01:06:31;58.07;;;35.07;;
22606;SDS011;11470;20.968;105.834;2023-04-24T01:11:38;60.50;;;37.30;;
22606;SDS011;11470;20.968;105.834;2023-04-24T01:16:46;55.28;;;36.72;;
22606;SDS011;11470;20.968;105.834;2023-04-24T01:21:52;63.50;;;38.60;;
22606;SDS011;11470;20.968;105.834;2023-04-24T01:27:03;61.83;;;38.97;;
22606;SDS011;11470;20.968;105.834;2023-04-24T01:32:09;61.35;;;38.08;;
22606;SDS011;11470;20.968;105.834;2023-04-24T01:37:15;72.40;;;39.75;;
22606;SDS011;11470;20.968;105.834;2023-04-24T01:42:21;58.95;;;37.20;;
22606;SDS011;11470;20.968;105.834;2023-04-24T01:47:29;56.88;;;37.63;;
22606;SDS011;11470;20.968;105.834;2023-04-24T01:52:37;56.83;;;36.78;;
22606;SDS011;11470;20.968;105.834;2023-04-24T01:57:44;52.22;;;37.53;;
22606;SDS011;11470;20.968;105.834;2023-04-24T02:07:55;53.20;;;36.30;;
22606;SDS011;11470;20.968;105.834;2023-04-24T02:13:02;48.45;;;32.95;;
22606;SDS011;11470;20.968;105.834;2023-04-24T02:18:08;50.83;;;34.22;;
22606;SDS011;11470;20.968;105.834;2023-04-24T02:23:15;49.22;;;33.58;;
22606;SDS011;11470;20.968;105.834;2023-04-24T02:28:21;51.92;;;34.90;;
22606;SDS011;11470;20.968;105.834;2023-04-24T02:33:27;56.10;;;30.90;;
22606;SDS011;11470;20.968;105.834;2023-04-24T02:38:39;52.33;;;35.78;;
22606;SDS011;11470;20.968;105.834;2023-04-24T02:43:47;50.97;;;32.40;;
22606;SDS011;11470;20.968;105.834;2023-04-24T02:48:53;63.67;;;41.45;;
22606;SDS011;11470;20.968;105.834;2023-04-24T02:59:04;67.07;;;41.33;;
22606;SDS011;11470;20.968;105.834;2023-04-24T03:04:11;54.55;;;33.80;;
22606;SDS011;11470;20.968;105.834;2023-04-24T03:09:16;57.38;;;38.30;;
22606;SDS011;11470;20.968;105.834;2023-04-24T03:19:28;60.27;;;40.10;;
22606;SDS011;11470;20.968;105.834;2023-04-24T03:24:39;55.92;;;39.40;;
22606;SDS011;11470;20.968;105.834;2023-04-24T03:29:46;62.22;;;40.97;;
22606;SDS011;11470;20.968;105.834;2023-04-24T03:34:56;56.60;;;38.53;;
22606;SDS011;11470;20.968;105.834;2023-04-24T03:45:15;41.38;;;29.05;;
22606;SDS011;11470;20.968;105.834;2023-04-24T03:50:24;40.65;;;28.17;;
22606;SDS011;11470;20.968;105.834;2023-04-24T03:55:31;51.42;;;35.45;;
22606;SDS011;11470;20.968;105.834;2023-04-24T04:00:39;45.92;;;31.38;;
22606;SDS011;11470;20.968;105.834;2023-04-24T04:06:17;51.50;;;36.42;;
22606;SDS011;11470;20.968;105.834;2023-04-24T04:11:25;50.70;;;33.13;;
22606;SDS011;11470;20.968;105.834;2023-04-24T04:16:31;41.63;;;27.63;;
22606;SDS011;11470;20.968;105.834;2023-04-24T04:21:38;44.90;;;29.90;;
22606;SDS011;11470;20.968;105.834;2023-04-24T04:26:58;44.50;;;28.15;;
22606;SDS011;11470;20.968;105.834;2023-04-24T04:32:23;46.60;;;30.75;;
22606;SDS011;11470;20.968;105.834;2023-04-24T04:37:31;44.42;;;28.70;;
22606;SDS011;11470;20.968;105.834;2023-04-24T04:43:04;54.38;;;36.05;;
22606;SDS011;11470;20.968;105.834;2023-04-24T04:48:17;51.38;;;32.97;;
22606;SDS011;11470;20.968;105.834;2023-04-24T04:53:24;51.67;;;34.22;;
22606;SDS011;11470;20.968;105.834;2023-04-24T04:58:31;50.70;;;33.75;;
22606;SDS011;11470;20.968;105.834;2023-04-24T05:03:38;52.03;;;35.90;;
22606;SDS011;11470;20.968;105.834;2023-04-24T05:08:47;53.05;;;34.72;;
22606;SDS011;11470;20.968;105.834;2023-04-24T05:14:17;52.30;;;31.90;;
22606;SDS011;11470;20.968;105.834;2023-04-24T05:19:23;52.03;;;34.67;;
22606;SDS011;11470;20.968;105.834;2023-04-24T05:24:33;52.42;;;35.97;;
22606;SDS011;11470;20.968;105.834;2023-04-24T05:29:48;52.50;;;34.28;;
22606;SDS011;11470;20.968;105.834;2023-04-24T05:34:54;56.03;;;34.42;;
22606;SDS011;11470;20.968;105.834;2023-04-24T05:40:00;46.72;;;30.33;;
22606;SDS011;11470;20.968;105.834;2023-04-24T05:50:11;44.30;;;29.05;;
22606;SDS011;11470;20.968;105.834;2023-04-24T05:55:17;52.90;;;32.08;;
22606;SDS011;11470;20.968;105.834;2023-04-24T06:00:23;48.03;;;33.60;;
22606;SDS011;11470;20.968;105.834;2023-04-24T06:05:37;48.47;;;32.50;;
22606;SDS011;11470;20.968;105.834;2023-04-24T06:10:43;45.42;;;33.15;;
22606;SDS011;11470;20.968;105.834;2023-04-24T06:15:53;41.60;;;29.23;;
22606;SDS011;11470;20.968;105.834;2023-04-24T06:21:09;45.35;;;32.85;;
22606;SDS011;11470;20.968;105.834;2023-04-24T06:26:19;47.97;;;33.50;;
22606;SDS011;11470;20.968;105.834;2023-04-24T06:31:30;43.92;;;32.88;;
22606;SDS011;11470;20.968;105.834;2023-04-24T06:36:55;45.85;;;28.48;;
22606;SDS011;11470;20.968;105.834;2023-04-24T06:42:01;49.17;;;30.90;;
22606;SDS011;11470;20.968;105.834;2023-04-24T06:47:09;47.60;;;31.85;;
22606;SDS011;11470;20.968;105.834;2023-04-24T06:52:17;43.13;;;30.35;;
22606;SDS011;11470;20.968;105.834;2023-04-24T06:57:23;39.72;;;28.23;;
22606;SDS011;11470;20.968;105.834;2023-04-24T07:02:33;40.58;;;30.65;;
22606;SDS011;11470;20.968;105.834;2023-04-24T07:07:38;40.97;;;25.95;;
22606;SDS011;11470;20.968;105.834;2023-04-24T07:12:46;44.28;;;29.25;;
22606;SDS011;11470;20.968;105.834;2023-04-24T07:17:51;38.47;;;26.13;;
22606;SDS011;11470;20.968;105.834;2023-04-24T07:22:57;33.58;;;24.13;;
22606;SDS011;11470;20.968;105.834;2023-04-24T07:28:33;38.28;;;24.77;;
22606;SDS011;11470;20.968;105.834;2023-04-24T07:33:39;34.25;;;24.42;;
22606;SDS011;11470;20.968;105.834;2023-04-24T07:38:45;46.20;;;30.77;;
22606;SDS011;11470;20.968;105.834;2023-04-24T07:43:51;35.50;;;25.33;;
22606;SDS011;11470;20.968;105.834;2023-04-24T07:48:57;39.78;;;25.23;;
22606;SDS011;11470;20.968;105.834;2023-04-24T07:54:15;37.90;;;24.58;;
22606;SDS011;11470;20.968;105.834;2023-04-24T07:59:20;35.85;;;23.27;;
22606;SDS011;11470;20.968;105.834;2023-04-24T08:04:30;36.58;;;24.08;;
22606;SDS011;11470;20.968;105.834;2023-04-24T08:09:36;36.70;;;25.27;;
22606;SDS011;11470;20.968;105.834;2023-04-24T08:14:42;41.97;;;27.17;;
22606;SDS011;11470;20.968;105.834;2023-04-24T08:19:47;37.85;;;24.85;;
22606;SDS011;11470;20.968;105.834;2023-04-24T08:24:55;36.65;;;25.55;;
22606;SDS011;11470;20.968;105.834;2023-04-24T08:30:04;34.33;;;25.88;;
22606;SDS011;11470;20.968;105.834;2023-04-24T08:35:11;44.30;;;25.42;;
22606;SDS011;11470;20.968;105.834;2023-04-24T08:40:23;40.28;;;26.42;;
22606;SDS011;11470;20.968;105.834;2023-04-24T08:45:34;39.88;;;25.63;;
22606;SDS011;11470;20.968;105.834;2023-04-24T08:50:40;39.08;;;26.08;;
22606;SDS011;11470;20.968;105.834;2023-04-24T08:55:47;41.15;;;28.83;;
22606;SDS011;11470;20.968;105.834;2023-04-24T09:00:57;35.35;;;25.55;;
22606;SDS011;11470;20.968;105.834;2023-04-24T09:06:06;39.65;;;27.45;;
22606;SDS011;11470;20.968;105.834;2023-04-24T09:11:14;36.28;;;23.70;;
22606;SDS011;11470;20.968;105.834;2023-04-24T09:21:59;33.97;;;25.73;;
22606;SDS011;11470;20.968;105.834;2023-04-24T09:27:10;36.03;;;26.92;;
22606;SDS011;11470;20.968;105.834;2023-04-24T09:32:21;36.67;;;27.15;;
22606;SDS011;11470;20.968;105.834;2023-04-24T09:37:29;36.38;;;24.15;;
22606;SDS011;11470;20.968;105.834;2023-04-24T09:42:39;37.00;;;26.00;;
22606;SDS011;11470;20.968;105.834;2023-04-24T09:48:12;37.72;;;26.17;;
22606;SDS011;11470;20.968;105.834;2023-04-24T09:53:18;36.42;;;24.27;;
22606;SDS011;11470;20.968;105.834;2023-04-24T09:58:30;34.50;;;23.88;;
22606;SDS011;11470;20.968;105.834;2023-04-24T10:03:35;36.08;;;23.40;;
22606;SDS011;11470;20.968;105.834;2023-04-24T10:08:42;36.25;;;22.63;;
22606;SDS011;11470;20.968;105.834;2023-04-24T10:13:50;34.10;;;22.85;;
22606;SDS011;11470;20.968;105.834;2023-04-24T10:18:58;33.75;;;24.73;;
22606;SDS011;11470;20.968;105.834;2023-04-24T10:24:04;34.10;;;25.17;;
22606;SDS011;11470;20.968;105.834;2023-04-24T10:29:15;36.65;;;23.08;;
22606;SDS011;11470;20.968;105.834;2023-04-24T10:34:21;41.53;;;24.90;;
22606;SDS011;11470;20.968;105.834;2023-04-24T10:39:29;34.13;;;24.25;;
22606;SDS011;11470;20.968;105.834;2023-04-24T10:44:37;36.25;;;26.48;;
22606;SDS011;11470;20.968;105.834;2023-04-24T10:49:45;37.83;;;24.85;;
22606;SDS011;11470;20.968;105.834;2023-04-24T10:54:50;37.13;;;26.63;;
22606;SDS011;11470;20.968;105.834;2023-04-24T11:00:10;35.13;;;25.88;;
22606;SDS011;11470;20.968;105.834;2023-04-24T11:05:21;40.30;;;26.13;;
22606;SDS011;11470;20.968;105.834;2023-04-24T11:10:27;39.83;;;25.92;;
22606;SDS011;11470;20.968;105.834;2023-04-24T11:15:32;41.45;;;27.98;;
22606;SDS011;11470;20.968;105.834;2023-04-24T11:20:41;46.33;;;28.98;;
22606;SDS011;11470;20.968;105.834;2023-04-24T11:26:09;37.30;;;25.65;;
22606;SDS011;11470;20.968;105.834;2023-04-24T11:31:35;43.85;;;28.48;;
22606;SDS011;11470;20.968;105.834;2023-04-24T11:37:56;39.95;;;28.20;;
22606;SDS011;11470;20.968;105.834;2023-04-24T11:43:06;38.92;;;28.83;;
22606;SDS011;11470;20.968;105.834;2023-04-24T11:48:18;41.78;;;29.65;;
22606;SDS011;11470;20.968;105.834;2023-04-24T11:53:26;42.70;;;28.98;;
22606;SDS011;11470;20.968;105.834;2023-04-24T11:58:39;48.72;;;29.80;;
22606;SDS011;11470;20.968;105.834;2023-04-24T12:03:48;38.28;;;27.05;;
22606;SDS011;11470;20.968;105.834;2023-04-24T12:09:10;37.97;;;27.83;;
22606;SDS011;11470;20.968;105.834;2023-04-24T12:14:21;40.70;;;29.00;;
22606;SDS011;11470;20.968;105.834;2023-04-24T12:19:28;45.60;;;29.13;;
22606;SDS011;11470;20.968;105.834;2023-04-24T12:24:55;44.35;;;28.65;;
22606;SDS011;11470;20.968;105.834;2023-04-24T12:30:05;44.80;;;29.10;;
22606;SDS011;11470;20.968;105.834;2023-04-24T12:35:19;48.58;;;30.58;;
22606;SDS011;11470;20.968;105.834;2023-04-24T12:40:30;38.08;;;28.05;;
22606;SDS011;11470;20.968;105.834;2023-04-24T12:45:35;43.75;;;29.00;;
22606;SDS011;11470;20.968;105.834;2023-04-24T12:50:41;39.80;;;27.13;;
22606;SDS011;11470;20.968;105.834;2023-04-24T12:55:52;41.40;;;28.58;;
22606;SDS011;11470;20.968;105.834;2023-04-24T13:00:58;38.45;;;25.70;;
22606;SDS011;11470;20.968;105.834;2023-04-24T13:06:15;39.13;;;26.42;;
22606;SDS011;11470;20.968;105.834;2023-04-24T13:18:50;35.28;;;25.83;;
22606;SDS011;11470;20.968;105.834;2023-04-24T13:23:57;37.92;;;27.35;;
22606;SDS011;11470;20.968;105.834;2023-04-24T13:29:03;27.52;;;15.95;;
22606;SDS011;11470;20.968;105.834;2023-04-24T13:34:10;36.63;;;22.75;;
22606;SDS011;11470;20.968;105.834;2023-04-24T13:39:15;33.47;;;24.48;;
22606;SDS011;11470;20.968;105.834;2023-04-24T13:44:26;36.30;;;22.77;;
22606;SDS011;11470;20.968;105.834;2023-04-24T13:49:33;37.78;;;25.50;;
22606;SDS011;11470;20.968;105.834;2023-04-24T13:54:39;38.80;;;22.95;;
22606;SDS011;11470;20.968;105.834;2023-04-24T13:59:47;36.75;;;25.48;;
22606;SDS011;11470;20.968;105.834;2023-04-24T14:04:55;39.92;;;25.30;;
22606;SDS011;11470;20.968;105.834;2023-04-24T14:10:01;42.58;;;26.85;;
22606;SDS011;11470;20.968;105.834;2023-04-24T14:15:08;38.00;;;23.75;;
22606;SDS011;11470;20.968;105.834;2023-04-24T14:20:16;41.70;;;27.67;;
22606;SDS011;11470;20.968;105.834;2023-04-24T14:25:31;40.43;;;27.63;;
22606;SDS011;11470;20.968;105.834;2023-04-24T14:30:37;25.73;;;13.38;;
22606;SDS011;11470;20.968;105.834;2023-04-24T14:35:45;43.03;;;26.70;;
22606;SDS011;11470;20.968;105.834;2023-04-24T14:40:51;40.33;;;28.60;;
22606;SDS011;11470;20.968;105.834;2023-04-24T14:46:12;36.92;;;23.48;;
22606;SDS011;11470;20.968;105.834;2023-04-24T14:51:17;38.13;;;24.77;;
22606;SDS011;11470;20.968;105.834;2023-04-24T14:56:27;33.67;;;20.98;;
22606;SDS011;11470;20.968;105.834;2023-04-24T15:01:33;38.95;;;27.42;;
22606;SDS011;11470;20.968;105.834;2023-04-24T15:06:40;33.17;;;20.60;;
22606;SDS011;11470;20.968;105.834;2023-04-24T15:16:51;32.23;;;20.73;;
22606;SDS011;11470;20.968;105.834;2023-04-24T15:21:58;35.47;;;21.58;;
22606;SDS011;11470;20.968;105.834;2023-04-24T15:27:09;37.30;;;23.75;;
22606;SDS011;11470;20.968;105.834;2023-04-24T15:32:18;42.22;;;25.85;;
22606;SDS011;11470;20.968;105.834;2023-04-24T15:37:26;37.70;;;25.17;;
22606;SDS011;11470;20.968;105.834;2023-04-24T15:42:32;40.65;;;26.35;;
22606;SDS011;11470;20.968;105.834;2023-04-24T15:47:38;37.08;;;25.95;;
22606;SDS011;11470;20.968;105.834;2023-04-24T15:52:44;36.03;;;24.40;;
22606;SDS011;11470;20.968;105.834;2023-04-24T15:57:50;36.10;;;24.17;;
22606;SDS011;11470;20.968;105.834;2023-04-24T16:02:56;35.03;;;20.63;;
22606;SDS011;11470;20.968;105.834;2023-04-24T16:08:02;35.08;;;24.08;;
22606;SDS011;11470;20.968;105.834;2023-04-24T16:13:08;40.00;;;25.55;;
22606;SDS011;11470;20.968;105.834;2023-04-24T16:18:15;38.85;;;26.02;;
22606;SDS011;11470;20.968;105.834;2023-04-24T16:28:25;35.38;;;24.95;;
22606;SDS011;11470;20.968;105.834;2023-04-24T16:33:33;37.78;;;21.75;;
22606;SDS011;11470;20.968;105.834;2023-04-24T16:38:41;35.50;;;20.73;;
22606;SDS011;11470;20.968;105.834;2023-04-24T16:43:48;36.45;;;21.83;;
22606;SDS011;11470;20.968;105.834;2023-04-24T16:48:56;34.00;;;23.25;;
22606;SDS011;11470;20.968;105.834;2023-04-24T16:54:10;28.73;;;20.70;;
22606;SDS011;11470;20.968;105.834;2023-04-24T17:05:54;35.08;;;23.73;;
22606;SDS011;11470;20.968;105.834;2023-04-24T17:17:28;27.80;;;19.48;;
22606;SDS011;11470;20.968;105.834;2023-04-24T17:22:37;30.13;;;19.52;;
22606;SDS011;11470;20.968;105.834;2023-04-24T17:27:43;36.60;;;23.05;;
22606;SDS011;11470;20.968;105.834;2023-04-24T17:38:29;35.22;;;22.02;;
22606;SDS011;11470;20.968;105.834;2023-04-24T17:43:35;37.47;;;24.02;;
22606;SDS011;11470;20.968;105.834;2023-04-24T17:48:41;35.72;;;23.42;;
22606;SDS011;11470;20.968;105.834;2023-04-24T17:53:48;43.33;;;26.15;;
22606;SDS011;11470;20.968;105.834;2023-04-24T17:58:55;34.22;;;21.70;;
22606;SDS011;11470;20.968;105.834;2023-04-24T18:04:01;31.88;;;20.15;;
22606;SDS011;11470;20.968;105.834;2023-04-24T18:09:07;33.20;;;22.48;;
22606;SDS011;11470;20.968;105.834;2023-04-24T18:14:13;27.88;;;19.10;;
22606;SDS011;11470;20.968;105.834;2023-04-24T18:24:24;29.77;;;18.83;;
22606;SDS011;11470;20.968;105.834;2023-04-24T18:34:35;29.55;;;16.75;;
22606;SDS011;11470;20.968;105.834;2023-04-24T18:39:41;32.80;;;18.48;;
22606;SDS011;11470;20.968;105.834;2023-04-24T18:44:47;28.70;;;16.95;;
22606;SDS011;11470;20.968;105.834;2023-04-24T18:49:53;27.25;;;17.25;;
22606;SDS011;11470;20.968;105.834;2023-04-24T18:54:58;27.70;;;16.40;;
22606;SDS011;11470;20.968;105.834;2023-04-24T19:00:05;28.92;;;17.90;;
22606;SDS011;11470;20.968;105.834;2023-04-24T19:05:11;28.63;;;16.67;;
22606;SDS011;11470;20.968;105.834;2023-04-24T19:10:17;32.40;;;16.42;;
22606;SDS011;11470;20.968;105.834;2023-04-24T19:15:23;31.83;;;16.92;;
22606;SDS011;11470;20.968;105.834;2023-04-24T19:20:29;29.23;;;17.25;;
22606;SDS011;11470;20.968;105.834;2023-04-24T19:25:35;31.83;;;17.85;;
22606;SDS011;11470;20.968;105.834;2023-04-24T19:30:42;26.05;;;16.17;;
22606;SDS011;11470;20.968;105.834;2023-04-24T19:35:48;28.60;;;16.40;;
22606;SDS011;11470;20.968;105.834;2023-04-24T19:40:54;27.20;;;16.45;;
22606;SDS011;11470;20.968;105.834;2023-04-24T19:45:59;33.78;;;18.90;;
22606;SDS011;11470;20.968;105.834;2023-04-24T19:51:05;28.48;;;17.45;;
22606;SDS011;11470;20.968;105.834;2023-04-24T19:56:10;26.52;;;16.98;;
22606;SDS011;11470;20.968;105.834;2023-04-24T20:06:22;29.08;;;16.77;;
22606;SDS011;11470;20.968;105.834;2023-04-24T20:11:28;30.33;;;17.23;;
22606;SDS011;11470;20.968;105.834;2023-04-24T20:16:33;26.80;;;16.48;;
22606;SDS011;11470;20.968;105.834;2023-04-24T20:21:40;27.05;;;15.52;;
22606;SDS011;11470;20.968;105.834;2023-04-24T20:31:51;29.65;;;17.83;;
22606;SDS011;11470;20.968;105.834;2023-04-24T20:36:56;27.67;;;16.73;;
22606;SDS011;11470;20.968;105.834;2023-04-24T20:42:03;27.48;;;17.13;;
22606;SDS011;11470;20.968;105.834;2023-04-24T20:47:09;32.00;;;18.85;;
22606;SDS011;11470;20.968;105.834;2023-04-24T20:57:20;37.60;;;22.92;;
22606;SDS011;11470;20.968;105.834;2023-04-24T21:02:26;33.65;;;20.05;;
22606;SDS011;11470;20.968;105.834;2023-04-24T21:07:32;35.83;;;21.95;;
22606;SDS011;11470;20.968;105.834;2023-04-24T21:12:38;37.00;;;23.10;;
22606;SDS011;11470;20.968;105.834;2023-04-24T21:17:44;33.63;;;21.30;;
22606;SDS011;11470;20.968;105.834;2023-04-24T21:22:50;40.70;;;23.27;;
22606;SDS011;11470;20.968;105.834;2023-04-24T21:27:56;40.30;;;21.48;;
22606;SDS011;11470;20.968;105.834;2023-04-24T21:33:03;29.05;;;20.20;;
22606;SDS011;11470;20.968;105.834;2023-04-24T21:43:14;41.55;;;25.50;;
22606;SDS011;11470;20.968;105.834;2023-04-24T21:48:24;51.20;;;29.73;;
22606;SDS011;11470;20.968;105.834;2023-04-24T21:53:31;40.42;;;27.23;;
22606;SDS011;11470;20.968;105.834;2023-04-24T22:03:42;37.83;;;24.53;;
22606;SDS011;11470;20.968;105.834;2023-04-24T22:08:48;51.45;;;33.67;;
22606;SDS011;11470;20.968;105.834;2023-04-24T22:13:53;43.28;;;26.27;;
22606;SDS011;11470;20.968;105.834;2023-04-24T22:18:59;42.33;;;29.30;;
22606;SDS011;11470;20.968;105.834;2023-04-24T22:24:06;40.30;;;26.80;;
22606;SDS011;11470;20.968;105.834;2023-04-24T22:29:12;47.58;;;29.42;;
22606;SDS011;11470;20.968;105.834;2023-04-24T22:34:18;43.17;;;26.02;;
22606;SDS011;11470;20.968;105.834;2023-04-24T22:39:24;54.80;;;30.75;;
22606;SDS011;11470;20.968;105.834;2023-04-24T22:44:30;51.85;;;30.38;;
22606;SDS011;11470;20.968;105.834;2023-04-24T22:49:36;41.88;;;27.17;;
22606;SDS011;11470;20.968;105.834;2023-04-24T22:54:43;42.65;;;27.60;;
22606;SDS011;11470;20.968;105.834;2023-04-24T23:05:02;48.50;;;28.85;;
22606;SDS011;11470;20.968;105.834;2023-04-24T23:10:11;47.72;;;27.23;;
22606;SDS011;11470;20.968;105.834;2023-04-24T23:15:17;45.28;;;26.27;;
22606;SDS011;11470;20.968;105.834;2023-04-24T23:20:23;42.63;;;24.50;;
22606;SDS011;11470;20.968;105.834;2023-04-24T23:25:29;38.05;;;23.88;;
22606;SDS011;11470;20.968;105.834;2023-04-24T23:30:36;43.33;;;28.13;;
22606;SDS011;11470;20.968;105.834;2023-04-24T23:35:42;42.50;;;26.05;;
22606;SDS011;11470;20.968;105.834;2023-04-24T23:40:48;43.72;;;25.52;;
22606;SDS011;11470;20.968;105.834;2023-04-24T23:45:54;39.30;;;23.42;;
22606;SDS011;11470;20.968;105.834;2023-04-24T23:51:00;46.35;;;26.42;;
22606;SDS011;11470;20.968;105.834;2023-04-24T23:56:06;40.53;;;24.88;;
